Time;durP1;ratioP1;P1;durP2;ratioP2;P2;SDS_P1;SDS_P2;PMS_P1;PMS_P2;Temp;Humidity;BMP_temperature;BMP_pressure;BME280_temperature;BME280_humidity;BME280_pressure;Samples;Min_cycle;Max_cycle;Signal;HPM_P1;HPM_P2
2024/04/14 00:08:11;;;;;;;;;;;11.30;99.90;;;;;;22720062;26;19935;-77
2024/04/14 00:18:12;;;;;;;;;;;11.00;99.90;;;;;;22719499;26;19960;-77
2024/04/14 00:28:13;;;;;;;;;;;11.00;99.90;;;;;;22690227;26;19935;-77
2024/04/14 00:38:13;;;;;;;;;;;11.10;99.90;;;;;;22687702;26;19934;-77
2024/04/14 00:48:14;;;;;;;;;;;10.90;99.90;;;;;;22706389;26;19955;-77
2024/04/14 00:58:14;;;;;;;;;;;10.80;99.90;;;;;;22719652;26;19939;-76
2024/04/14 01:08:15;;;;;;;;;;;10.70;99.90;;;;;;22710045;26;19935;-77
2024/04/14 01:18:16;;;;;;;;;;;10.50;99.90;;;;;;22635224;26;19934;-77
2024/04/14 01:28:17;;;;;;;;;;;10.70;99.90;;;;;;22658118;26;20368;-77
2024/04/14 01:38:18;;;;;;;;;;;9.90;99.90;;;;;;22673996;26;20454;-76
2024/04/14 01:48:18;;;;;;;;;;;9.60;99.90;;;;;;22715892;26;19928;-76
2024/04/14 01:58:19;;;;;;;;;;;10.00;99.90;;;;;;22705692;26;20366;-77
2024/04/14 02:08:19;;;;;;;;;;;9.70;99.90;;;;;;22594891;26;19928;-77
2024/04/14 02:18:20;;;;;;;;;;;9.60;99.90;;;;;;22714606;26;19935;-77
2024/04/14 02:28:21;;;;;;;;;;;9.60;99.90;;;;;;22683975;26;19928;-77
2024/04/14 02:38:21;;;;;;;;;;;9.60;99.90;;;;;;22575961;26;20473;-77
2024/04/14 02:48:22;;;;;;;;;;;9.40;99.90;;;;;;22565698;26;20369;-77
2024/04/14 02:58:25;;;;;;;;;;;9.30;99.90;;;;;;22630485;26;21500;-77
2024/04/14 03:08:26;;;;;;;;;;;9.30;99.90;;;;;;22650116;26;20271;-77
2024/04/14 03:18:26;;;;;;;;;;;9.20;99.90;;;;;;22560387;26;19936;-77
2024/04/14 03:28:27;;;;;;;;;;;9.10;99.90;;;;;;22639607;26;19981;-76
2024/04/14 03:38:29;;;;;;;;;;;8.90;99.90;;;;;;22615535;26;20708;-75
2024/04/14 03:48:29;;;;;;;;;;;8.90;99.90;;;;;;22623719;26;20347;-77
2024/04/14 03:58:30;;;;;;;;;;;8.60;99.90;;;;;;22682211;26;19942;-77
2024/04/14 04:08:31;;;;;;;;;;;8.70;99.90;;;;;;22707916;26;19992;-77
2024/04/14 04:18:32;;;;;;;;;;;8.70;99.90;;;;;;22625120;26;19961;-76
2024/04/14 04:28:33;;;;;;;;;;;8.70;99.90;;;;;;22672530;26;19999;-77
2024/04/14 04:38:34;;;;;;;;;;;8.60;99.90;;;;;;22635130;26;19935;-76
2024/04/14 04:48:35;;;;;;;;;;;8.50;99.90;;;;;;22706067;26;20598;-75
2024/04/14 04:58:35;;;;;;;;;;;8.30;99.90;;;;;;22721586;26;19943;-77
2024/04/14 05:08:36;;;;;;;;;;;8.40;99.90;;;;;;22705892;26;19928;-76
2024/04/14 05:18:36;;;;;;;;;;;8.50;99.90;;;;;;22707254;26;20395;-76
2024/04/14 05:28:37;;;;;;;;;;;8.60;99.90;;;;;;22717614;26;19964;-76
2024/04/14 05:38:38;;;;;;;;;;;9.00;99.90;;;;;;22717501;26;19956;-75
2024/04/14 05:48:38;;;;;;;;;;;9.60;99.90;;;;;;22655354;26;20319;-75
2024/04/14 05:58:39;;;;;;;;;;;10.20;99.90;;;;;;22717136;26;19959;-76
2024/04/14 06:08:40;;;;;;;;;;;10.50;99.90;;;;;;22717089;26;19956;-76
2024/04/14 06:18:40;;;;;;;;;;;11.20;99.90;;;;;;22715573;26;20666;-75
2024/04/14 06:28:41;;;;;;;;;;;11.90;99.90;;;;;;22706424;26;19936;-76
2024/04/14 06:38:44;;;;;;;;;;;12.50;99.90;;;;;;22700113;26;19934;-76
2024/04/14 06:48:45;;;;;;;;;;;13.10;99.90;;;;;;22700812;26;19928;-77
2024/04/14 06:58:46;;;;;;;;;;;13.90;99.90;;;;;;22661557;26;19963;-76
2024/04/14 07:08:46;;;;;;;;;;;14.30;99.90;;;;;;22686666;26;20411;-76
2024/04/14 07:18:47;;;;;;;;;;;15.30;99.90;;;;;;22710347;26;19928;-75
2024/04/14 07:28:48;;;;;;;;;;;15.50;99.90;;;;;;22683527;26;19928;-79
2024/04/14 07:38:49;;;;;;;;;;;16.40;99.90;;;;;;22650471;26;19944;-77
2024/04/14 07:48:49;;;;;;;;;;;16.90;99.90;;;;;;22709554;26;20382;-77
2024/04/14 07:58:50;;;;;;;;;;;17.70;99.90;;;;;;22643157;26;19961;-77
2024/04/14 08:08:51;;;;;;;;;;;18.80;99.90;;;;;;22572565;26;19928;-77
2024/04/14 08:18:51;;;;;;;;;;;19.50;99.90;;;;;;22703142;26;20310;-76
2024/04/14 08:28:52;;;;;;;;;;;19.70;99.90;;;;;;22710906;26;19936;-77
2024/04/14 08:38:53;;;;;;;;;;;20.30;99.90;;;;;;22720270;26;19928;-77
2024/04/14 08:48:54;;;;;;;;;;;20.80;99.90;;;;;;22722317;26;19928;-76
2024/04/14 08:58:57;;;;;;;;;;;20.80;99.90;;;;;;22598633;26;19935;-78
2024/04/14 09:08:57;;;;;;;;;;;21.80;99.90;;;;;;22633847;26;19937;-78
2024/04/14 09:18:58;;;;;;;;;;;22.60;99.90;;;;;;22686469;26;20314;-77
2024/04/14 09:29:06;;;;;;;;;;;23.50;99.90;;;;;;22711857;26;20121;-77
2024/04/14 09:39:07;;;;;;;;;;;24.30;99.90;;;;;;22656667;26;19928;-78
2024/04/14 09:49:08;;;;;;;;;;;25.20;99.90;;;;;;22699397;26;19997;-78
2024/04/14 09:59:09;;;;;;;;;;;25.30;99.90;;;;;;22645718;26;19928;-77
2024/04/14 10:09:11;;;;;;;;;;;25.70;99.90;;;;;;22680321;26;19950;-77
2024/04/14 10:19:12;;;;;;;;;;;26.00;99.90;;;;;;22668222;26;19936;-79
2024/04/14 10:29:17;;;;;;;;;;;26.30;99.90;;;;;;22670444;26;19995;-77
2024/04/14 10:39:18;;;;;;;;;;;25.80;99.90;;;;;;22658735;26;20374;-78
2024/04/14 10:49:19;;;;;;;;;;;27.10;99.90;;;;;;22666803;26;19941;-76
2024/04/14 10:59:20;;;;;;;;;;;27.70;99.90;;;;;;22648598;26;19928;-76
2024/04/14 11:09:22;;;;;;;;;;;27.10;99.90;;;;;;22662019;26;19930;-77
2024/04/14 11:19:23;;;;;;;;;;;27.00;99.90;;;;;;22716010;26;20370;-77
2024/04/14 11:29:24;;;;;;;;;;;27.40;99.90;;;;;;22681933;26;19928;-78
2024/04/14 11:39:25;;;;;;;;;;;27.00;99.90;;;;;;22717741;26;19956;-79
2024/04/14 11:49:25;;;;;;;;;;;27.10;99.90;;;;;;22689688;26;20314;-77
2024/04/14 11:59:26;;;;;;;;;;;26.60;99.90;;;;;;22709486;26;20421;-77
2024/04/14 12:09:27;;;;;;;;;;;27.70;99.90;;;;;;22693566;26;19992;-77
2024/04/14 12:19:27;;;;;;;;;;;27.60;99.90;;;;;;22720954;26;19964;-77
2024/04/14 12:29:28;;;;;;;;;;;28.00;99.90;;;;;;22715350;26;19996;-77
2024/04/14 12:39:29;;;;;;;;;;;28.00;99.90;;;;;;22714215;26;19935;-78
2024/04/14 12:49:29;;;;;;;;;;;28.40;99.90;;;;;;22694605;26;19928;-78
2024/04/14 12:59:30;;;;;;;;;;;28.20;99.90;;;;;;22706997;26;19929;-78
2024/04/14 13:09:31;;;;;;;;;;;28.10;99.90;;;;;;22663696;26;19982;-80
2024/04/14 13:19:32;;;;;;;;;;;27.80;99.90;;;;;;22653154;26;19942;-76
2024/04/14 13:29:33;;;;;;;;;;;28.00;99.90;;;;;;22655345;26;19940;-76
2024/04/14 13:39:34;;;;;;;;;;;28.00;99.90;;;;;;22625979;26;19985;-76
2024/04/14 13:49:35;;;;;;;;;;;28.30;99.10;;;;;;22643634;26;19935;-76
2024/04/14 13:59:35;;;;;;;;;;;28.20;99.90;;;;;;22628975;26;19928;-75
2024/04/14 14:09:36;;;;;;;;;;;28.10;98.30;;;;;;22669303;26;19934;-76
2024/04/14 14:19:37;;;;;;;;;;;28.20;96.70;;;;;;22681888;26;20347;-75
2024/04/14 14:29:38;;;;;;;;;;;27.80;97.30;;;;;;22668883;26;19935;-78
2024/04/14 14:39:38;;;;;;;;;;;28.00;97.70;;;;;;22613809;26;19944;-76
2024/04/14 14:49:39;;;;;;;;;;;28.20;96.00;;;;;;22586859;26;19932;-75
2024/04/14 14:59:40;;;;;;;;;;;28.30;97.80;;;;;;22585424;26;20626;-76
2024/04/14 15:09:40;;;;;;;;;;;27.50;93.80;;;;;;22685233;26;19964;-76
2024/04/14 15:19:41;;;;;;;;;;;27.70;93.10;;;;;;22618062;26;19928;-75
2024/04/14 15:29:42;;;;;;;;;;;27.40;92.90;;;;;;22680359;26;20300;-74
2024/04/14 15:39:45;;;;;;;;;;;27.60;93.40;;;;;;22697880;26;19943;-76
2024/04/14 15:49:46;;;;;;;;;;;26.90;91.70;;;;;;22693741;26;19964;-75
2024/04/14 15:59:46;;;;;;;;;;;26.90;93.80;;;;;;22689269;26;19967;-76
2024/04/14 16:09:50;;;;;;;;;;;26.20;92.90;;;;;;22723124;26;19937;-77
2024/04/14 16:19:51;;;;;;;;;;;25.80;93.20;;;;;;22708510;26;19928;-78
2024/04/14 16:29:51;;;;;;;;;;;25.60;91.40;;;;;;22668805;26;20282;-75
2024/04/14 16:39:52;;;;;;;;;;;25.30;91.20;;;;;;22659587;26;19944;-75
2024/04/14 16:49:53;;;;;;;;;;;25.00;91.10;;;;;;22697284;26;19928;-78
2024/04/14 16:59:53;;;;;;;;;;;24.70;91.00;;;;;;22705813;26;19935;-76
2024/04/14 17:09:54;;;;;;;;;;;24.20;91.90;;;;;;22714234;26;20027;-75
2024/04/14 17:19:55;;;;;;;;;;;24.00;92.60;;;;;;22690883;26;19928;-76
2024/04/14 17:29:56;;;;;;;;;;;24.00;92.70;;;;;;22647131;26;19935;-77
2024/04/14 17:39:57;;;;;;;;;;;23.80;93.40;;;;;;22700837;26;19952;-76
2024/04/14 17:49:57;;;;;;;;;;;23.40;94.10;;;;;;22669953;26;19936;-77
2024/04/14 17:59:58;;;;;;;;;;;22.80;96.20;;;;;;22641699;26;19935;-77
2024/04/14 18:09:59;;;;;;;;;;;22.30;98.00;;;;;;22706711;26;19952;-77
2024/04/14 18:19:59;;;;;;;;;;;21.70;97.90;;;;;;22647985;26;19936;-79
2024/04/14 18:30:00;;;;;;;;;;;21.10;99.00;;;;;;22677971;26;19935;-80
2024/04/14 18:40:02;;;;;;;;;;;20.00;99.90;;;;;;22698586;26;20309;-77
2024/04/14 18:50:03;;;;;;;;;;;19.20;99.90;;;;;;22645168;26;19997;-78
2024/04/14 19:00:04;;;;;;;;;;;18.80;99.90;;;;;;22675515;26;19936;-78
2024/04/14 19:10:05;;;;;;;;;;;18.60;99.90;;;;;;22694796;26;19928;-77
2024/04/14 19:20:06;;;;;;;;;;;18.30;99.90;;;;;;22730133;26;19935;-79
2024/04/14 19:30:07;;;;;;;;;;;17.80;99.90;;;;;;22723273;26;19936;-79
2024/04/14 19:40:08;;;;;;;;;;;17.70;99.90;;;;;;22648913;26;19986;-80
2024/04/14 19:50:08;;;;;;;;;;;17.20;99.90;;;;;;22656880;26;19935;-79
2024/04/14 20:00:11;;;;;;;;;;;17.10;99.90;;;;;;22671012;26;19928;-77
2024/04/14 20:10:14;;;;;;;;;;;16.70;99.90;;;;;;22650303;26;19928;-77
2024/04/14 20:20:15;;;;;;;;;;;16.70;99.90;;;;;;22625293;26;19928;-77
2024/04/14 20:30:16;;;;;;;;;;;16.40;99.90;;;;;;22671877;26;19928;-78
2024/04/14 20:40:16;;;;;;;;;;;16.10;99.90;;;;;;22746739;26;19972;-79
2024/04/14 20:50:17;;;;;;;;;;;16.10;99.90;;;;;;22693236;26;19928;-78
2024/04/14 21:00:18;;;;;;;;;;;15.30;99.90;;;;;;22667297;26;19936;-78
2024/04/14 21:10:18;;;;;;;;;;;15.10;99.90;;;;;;22718233;26;20001;-78
2024/04/14 21:20:21;;;;;;;;;;;15.40;99.90;;;;;;22663707;26;19928;-78
2024/04/14 21:30:22;;;;;;;;;;;15.50;99.90;;;;;;22664490;26;20374;-77
2024/04/14 21:40:22;;;;;;;;;;;14.60;99.90;;;;;;22658185;26;19928;-78
2024/04/14 21:50:25;;;;;;;;;;;14.20;99.90;;;;;;22663346;26;19928;-78
2024/04/14 22:00:26;;;;;;;;;;;14.50;99.90;;;;;;22653549;26;19928;-78
2024/04/14 22:10:27;;;;;;;;;;;14.00;99.90;;;;;;22654789;26;20395;-77
2024/04/14 22:20:27;;;;;;;;;;;13.60;99.90;;;;;;22655863;26;20278;-78
2024/04/14 22:30:28;;;;;;;;;;;13.60;99.90;;;;;;22701189;26;19959;-77
2024/04/14 22:40:29;;;;;;;;;;;13.60;99.90;;;;;;22656160;26;20051;-77
2024/04/14 22:50:29;;;;;;;;;;;13.60;99.90;;;;;;22639426;26;19935;-77
2024/04/14 23:00:30;;;;;;;;;;;13.10;99.90;;;;;;22652122;26;20363;-77
2024/04/14 23:10:31;;;;;;;;;;;13.10;99.90;;;;;;22657283;26;19980;-77
2024/04/14 23:20:31;;;;;;;;;;;13.20;99.90;;;;;;22696585;26;19931;-77
2024/04/14 23:30:32;;;;;;;;;;;13.30;99.90;;;;;;22716149;26;19928;-77
2024/04/14 23:40:33;;;;;;;;;;;13.20;99.90;;;;;;22737511;26;19942;-77
2024/04/14 23:50:34;;;;;;;;;;;13.30;99.90;;;;;;22729049;26;19997;-77
